Time;durP1;ratioP1;P1;durP2;ratioP2;P2;SDS_P1;SDS_P2;PMS_P1;PMS_P2;Temp;Humidity;BMP_temperature;BMP_pressure;BME280_temperature;BME280_humidity;BME280_pressure;Samples;Min_cycle;Max_cycle;Signal;HPM_P1;HPM_P2
2022/12/08 00:01:23;;;;;;;10.77;9.15;;;7.60;99.90;;;;;;5033034;28;20221;-78
2022/12/08 00:03:49;;;;;;;13.65;11.18;;;7.60;99.90;;;;;;5035086;28;20560;-79
2022/12/08 00:09:22;;;;;;;14.90;10.82;;;7.50;99.90;;;;;;5031096;28;20208;-79
2022/12/08 00:12:01;;;;;;;13.50;10.98;;;7.60;99.90;;;;;;5032112;28;20216;-79
2022/12/08 00:14:29;;;;;;;12.52;9.82;;;7.60;99.90;;;;;;5031487;28;20212;-79
2022/12/08 00:16:56;;;;;;;12.52;10.75;;;7.50;99.90;;;;;;5033306;28;20173;-80
2022/12/08 00:19:22;;;;;;;11.77;9.65;;;7.50;99.90;;;;;;5033630;28;20194;-80
2022/12/08 00:21:51;;;;;;;13.75;12.35;;;7.50;99.90;;;;;;5032071;28;20204;-80
2022/12/08 00:24:18;;;;;;;17.10;12.57;;;7.50;99.90;;;;;;5037749;28;20169;-79
2022/12/08 00:26:44;;;;;;;19.08;15.10;;;7.60;99.90;;;;;;5033654;28;20200;-80
2022/12/08 00:29:10;;;;;;;15.90;12.88;;;7.60;99.90;;;;;;5034368;28;20897;-78
2022/12/08 00:31:36;;;;;;;16.20;13.10;;;7.60;99.90;;;;;;5035315;28;20228;-79
2022/12/08 00:34:02;;;;;;;12.27;10.97;;;7.60;99.90;;;;;;5035987;28;20577;-79
2022/12/08 00:36:28;;;;;;;12.82;11.43;;;7.60;99.90;;;;;;5034667;28;20576;-79
2022/12/08 00:38:54;;;;;;;13.70;10.27;;;7.60;99.90;;;;;;5034522;28;20274;-79
2022/12/08 00:42:10;;;;;;;11.80;10.37;;;7.60;99.90;;;;;;5034277;28;21073;-79
2022/12/08 00:44:09;;;;;;;12.27;10.95;;;7.60;99.90;;;;;;5032870;28;20627;-79
2022/12/08 00:46:36;;;;;;;15.65;10.88;;;7.50;99.90;;;;;;5031041;28;20173;-79
2022/12/08 00:49:02;;;;;;;15.18;11.30;;;7.50;99.90;;;;;;5032916;28;20177;-79
2022/12/08 00:51:28;;;;;;;14.35;11.73;;;7.50;99.90;;;;;;5032687;28;20754;-78
2022/12/08 00:53:54;;;;;;;12.70;10.33;;;7.50;99.90;;;;;;5031163;28;20228;-78
2022/12/08 00:56:19;;;;;;;12.53;10.00;;;7.50;99.90;;;;;;5030480;28;20173;-79
2022/12/08 00:58:46;;;;;;;15.13;11.20;;;7.50;99.90;;;;;;5030975;28;20198;-79
2022/12/08 01:01:13;;;;;;;13.53;12.00;;;7.50;99.90;;;;;;5032015;28;20182;-79
2022/12/08 01:03:39;;;;;;;15.30;11.23;;;7.50;99.90;;;;;;5031456;28;20178;-79
2022/12/08 01:06:06;;;;;;;13.23;11.35;;;7.50;99.90;;;;;;5033255;28;20204;-78
2022/12/08 01:08:33;;;;;;;12.05;10.63;;;7.50;99.90;;;;;;5030751;28;20161;-80
2022/12/08 01:11:07;;;;;;;12.10;10.90;;;7.50;99.90;;;;;;5031303;28;20612;-78
2022/12/08 01:13:33;;;;;;;14.18;12.35;;;7.40;99.90;;;;;;5031462;28;20166;-79
2022/12/08 01:15:59;;;;;;;13.30;11.37;;;7.40;99.90;;;;;;5030507;28;20179;-78
2022/12/08 01:18:26;;;;;;;12.80;11.30;;;7.40;99.90;;;;;;5027728;28;20927;-78
2022/12/08 01:20:52;;;;;;;14.85;10.80;;;7.40;99.90;;;;;;5028446;28;20201;-78
2022/12/08 01:23:18;;;;;;;13.53;10.77;;;7.40;99.90;;;;;;5028732;28;20162;-78
2022/12/08 01:25:43;;;;;;;16.87;12.37;;;7.40;99.90;;;;;;5051870;28;20174;-79
2022/12/08 01:28:09;;;;;;;15.90;12.10;;;7.40;99.90;;;;;;5054104;28;20571;-80
2022/12/08 01:30:37;;;;;;;14.03;12.53;;;7.40;99.90;;;;;;5055335;28;20193;-78
2022/12/08 01:33:03;;;;;;;14.60;12.77;;;7.40;99.90;;;;;;5054067;28;20560;-80
2022/12/08 01:35:29;;;;;;;13.48;12.18;;;7.40;99.90;;;;;;5047042;28;20166;-79
2022/12/08 01:37:54;;;;;;;13.30;12.00;;;7.40;99.90;;;;;;5042909;28;20178;-79
2022/12/08 01:40:20;;;;;;;12.67;11.37;;;7.50;99.90;;;;;;5054541;28;20193;-79
2022/12/08 01:42:46;;;;;;;12.50;11.10;;;7.50;99.90;;;;;;5054193;28;20170;-79
2022/12/08 01:45:25;;;;;;;12.53;11.23;;;7.50;99.90;;;;;;5054374;28;20177;-78
2022/12/08 01:47:55;;;;;;;11.98;10.02;;;7.50;99.90;;;;;;5044085;28;20174;-79
2022/12/08 01:50:24;;;;;;;10.85;9.75;;;7.50;99.90;;;;;;5053542;28;20204;-78
2022/12/08 01:53:00;;;;;;;13.90;11.32;;;7.50;99.90;;;;;;5052559;28;20173;-79
2022/12/08 01:55:58;;;;;;;12.68;10.63;;;7.50;99.90;;;;;;5053874;28;20165;-79
2022/12/08 01:58:34;;;;;;;9.73;8.77;;;7.50;99.90;;;;;;5052023;28;20181;-79
2022/12/08 02:01:00;;;;;;;12.20;10.80;;;7.50;99.90;;;;;;5050789;28;20426;-79
2022/12/08 02:03:32;;;;;;;14.40;10.60;;;7.60;99.90;;;;;;5022051;28;20210;-79
2022/12/08 02:06:01;;;;;;;11.85;9.60;;;7.60;99.90;;;;;;5035155;28;20771;-79
2022/12/08 02:08:27;;;;;;;10.50;9.25;;;7.60;99.90;;;;;;5024523;28;20190;-79
2022/12/08 02:10:53;;;;;;;10.52;9.25;;;7.60;99.90;;;;;;5022877;28;20194;-78
2022/12/08 02:13:22;;;;;;;10.60;9.50;;;7.60;99.90;;;;;;5022416;28;20162;-79
2022/12/08 02:16:15;;;;;;;9.60;8.40;;;7.60;99.90;;;;;;5022286;28;20562;-79
2022/12/08 02:19:06;;;;;;;11.07;8.30;;;7.60;99.90;;;;;;5029343;28;20161;-78
2022/12/08 02:21:53;;;;;;;10.38;8.73;;;7.70;99.90;;;;;;5033915;28;20193;-78
2022/12/08 02:25:04;;;;;;;11.00;8.68;;;7.70;99.90;;;;;;5034088;28;20173;-78
2022/12/08 02:27:53;;;;;;;11.63;8.05;;;7.70;99.90;;;;;;5000104;28;20258;-78
2022/12/08 02:30:30;;;;;;;10.55;6.95;;;7.70;99.90;;;;;;5034434;28;20201;-78
2022/12/08 02:32:59;;;;;;;7.72;6.85;;;7.70;99.90;;;;;;5032932;28;20182;-78
2022/12/08 02:35:54;;;;;;;9.05;6.75;;;7.70;99.90;;;;;;5035889;28;20193;-78
2022/12/08 02:38:20;;;;;;;8.43;6.90;;;7.70;99.90;;;;;;5037914;28;20230;-79
2022/12/08 02:40:48;;;;;;;7.40;6.47;;;7.70;99.90;;;;;;5037418;28;20222;-79
2022/12/08 02:43:34;;;;;;;9.18;7.13;;;7.80;99.90;;;;;;5021130;28;20174;-78
2022/12/08 02:46:11;;;;;;;8.90;6.70;;;7.80;99.90;;;;;;5017637;28;20188;-78
2022/12/08 02:48:37;;;;;;;8.90;6.50;;;7.80;99.90;;;;;;5016443;28;20193;-78
2022/12/08 02:51:03;;;;;;;16.17;7.43;;;7.80;99.90;;;;;;5016638;28;20198;-78
2022/12/08 02:53:31;;;;;;;9.15;6.82;;;7.80;99.90;;;;;;5019068;28;20984;-78
2022/12/08 02:56:33;;;;;;;8.25;6.95;;;7.80;99.90;;;;;;5037510;28;20242;-78
2022/12/08 02:59:30;;;;;;;12.73;6.80;;;7.80;99.90;;;;;;5036455;28;20228;-78
2022/12/08 03:02:21;;;;;;;10.50;7.10;;;7.80;99.90;;;;;;5038300;28;20201;-78
2022/12/08 03:05:08;;;;;;;7.43;6.72;;;7.80;99.90;;;;;;5037595;28;20169;-78
2022/12/08 03:07:37;;;;;;;11.80;7.20;;;7.80;99.90;;;;;;5037988;28;20266;-78
2022/12/08 03:10:10;;;;;;;7.75;6.32;;;7.80;99.90;;;;;;5037707;28;20747;-78
2022/12/08 03:12:41;;;;;;;7.47;6.72;;;7.80;99.90;;;;;;5036648;28;20170;-78
2022/12/08 03:15:11;;;;;;;8.10;6.38;;;7.80;99.90;;;;;;5036734;28;20169;-79
2022/12/08 03:17:42;;;;;;;11.18;7.00;;;7.80;99.90;;;;;;5037448;28;20171;-78
2022/12/08 03:20:13;;;;;;;7.47;6.57;;;7.80;99.90;;;;;;5037440;28;20244;-79
2022/12/08 03:22:40;;;;;;;8.70;6.55;;;7.80;99.90;;;;;;5037192;28;20170;-78
2022/12/08 03:25:08;;;;;;;10.85;6.82;;;7.90;99.90;;;;;;5033974;28;20210;-78
2022/12/08 03:27:34;;;;;;;7.50;6.35;;;7.90;99.90;;;;;;5025324;28;20185;-78
2022/12/08 03:30:00;;;;;;;9.47;6.53;;;7.90;99.90;;;;;;5029524;28;20151;-78
2022/12/08 03:32:39;;;;;;;7.38;6.57;;;7.90;99.90;;;;;;5037233;28;20902;-78
2022/12/08 03:35:10;;;;;;;6.40;5.68;;;7.90;99.90;;;;;;5037334;28;20250;-78
2022/12/08 03:37:38;;;;;;;7.38;6.50;;;7.90;99.90;;;;;;5036980;28;20170;-78
2022/12/08 03:40:06;;;;;;;8.23;6.38;;;7.90;99.90;;;;;;5037216;28;20218;-78
2022/12/08 03:42:32;;;;;;;7.20;6.25;;;7.90;99.90;;;;;;5036570;28;20163;-78
2022/12/08 03:44:58;;;;;;;7.87;6.40;;;7.90;99.90;;;;;;5037684;28;20240;-78
2022/12/08 03:47:24;;;;;;;9.00;6.70;;;7.90;99.90;;;;;;5036118;28;20162;-78
2022/12/08 03:49:49;;;;;;;9.20;7.13;;;7.90;99.90;;;;;;5036521;28;20170;-79
2022/12/08 03:52:15;;;;;;;8.83;6.90;;;7.90;99.90;;;;;;5034951;28;20609;-79
2022/12/08 03:54:41;;;;;;;7.73;6.93;;;7.90;99.90;;;;;;5037643;28;20175;-79
2022/12/08 03:57:07;;;;;;;8.83;7.93;;;7.90;99.90;;;;;;5033693;28;20178;-77
2022/12/08 03:59:32;;;;;;;9.23;6.55;;;7.90;99.90;;;;;;5035313;28;20459;-77
2022/12/08 04:01:58;;;;;;;7.50;6.67;;;7.90;99.90;;;;;;5046121;28;20195;-77
2022/12/08 04:04:24;;;;;;;10.60;7.13;;;7.90;99.90;;;;;;5028413;28;20185;-77
2022/12/08 04:06:50;;;;;;;9.00;6.70;;;7.90;99.90;;;;;;5025742;28;20174;-77
2022/12/08 04:09:17;;;;;;;8.23;7.53;;;7.90;99.90;;;;;;5030708;28;20578;-77
2022/12/08 04:11:42;;;;;;;8.80;7.85;;;7.90;99.90;;;;;;5027511;28;20186;-77
2022/12/08 04:14:08;;;;;;;10.50;7.70;;;7.90;99.90;;;;;;5033818;28;20689;-76
2022/12/08 04:16:34;;;;;;;8.40;7.60;;;7.90;99.90;;;;;;5034710;28;20226;-77
2022/12/08 04:19:00;;;;;;;9.27;7.33;;;7.90;99.90;;;;;;5035525;28;20613;-77
2022/12/08 04:21:29;;;;;;;8.10;6.75;;;7.90;99.90;;;;;;5034972;28;20197;-77
2022/12/08 04:23:55;;;;;;;10.52;7.22;;;7.90;99.90;;;;;;5033161;28;20234;-76
2022/12/08 04:26:21;;;;;;;8.13;6.90;;;7.90;99.90;;;;;;5033386;28;20170;-76
2022/12/08 04:28:46;;;;;;;8.73;6.70;;;7.90;99.90;;;;;;5019947;28;20202;-76
2022/12/08 04:31:12;;;;;;;7.67;6.87;;;7.90;99.90;;;;;;5027905;28;20190;-76
2022/12/08 04:33:38;;;;;;;7.13;6.43;;;7.80;99.90;;;;;;5029149;28;20166;-75
2022/12/08 04:36:05;;;;;;;6.87;5.60;;;7.80;99.90;;;;;;5022911;28;20833;-76
2022/12/08 04:38:31;;;;;;;7.00;5.75;;;7.80;99.90;;;;;;5024653;28;20205;-77
2022/12/08 04:40:57;;;;;;;6.97;6.20;;;7.80;99.90;;;;;;5030245;28;20202;-76
2022/12/08 04:43:23;;;;;;;7.97;6.13;;;7.70;99.90;;;;;;5034376;28;20168;-76
2022/12/08 04:45:49;;;;;;;7.03;5.40;;;7.70;99.90;;;;;;5050489;28;20245;-76
2022/12/08 04:48:15;;;;;;;5.90;4.90;;;7.70;99.90;;;;;;5049106;28;20166;-76
2022/12/08 04:50:42;;;;;;;7.43;5.63;;;7.70;99.90;;;;;;5047730;28;20600;-75
2022/12/08 04:53:10;;;;;;;8.10;6.93;;;7.70;99.90;;;;;;5051204;28;20972;-76
2022/12/08 04:55:40;;;;;;;7.63;6.85;;;7.70;99.90;;;;;;5052003;28;20184;-77
2022/12/08 04:58:06;;;;;;;9.18;6.60;;;7.60;99.90;;;;;;5050330;28;20173;-77
2022/12/08 05:00:32;;;;;;;8.05;6.78;;;7.60;99.90;;;;;;5052518;28;20186;-77
2022/12/08 05:02:58;;;;;;;8.00;6.90;;;7.60;99.90;;;;;;5054908;28;20176;-77
2022/12/08 05:05:24;;;;;;;9.83;6.60;;;7.60;99.90;;;;;;5054848;28;20567;-77
2022/12/08 05:07:49;;;;;;;11.20;7.43;;;7.60;99.90;;;;;;5054766;28;20173;-77
2022/12/08 05:10:15;;;;;;;8.57;6.73;;;7.60;99.90;;;;;;5053782;28;20174;-76
2022/12/08 05:12:41;;;;;;;10.00;7.60;;;7.60;99.90;;;;;;5052323;28;20568;-77
2022/12/08 05:15:07;;;;;;;8.97;7.73;;;7.60;99.90;;;;;;5051714;28;20176;-77
2022/12/08 05:17:32;;;;;;;10.68;8.65;;;7.60;99.90;;;;;;5049772;28;20189;-77
2022/12/08 05:19:58;;;;;;;9.57;8.47;;;7.60;99.90;;;;;;5046913;28;20253;-77
2022/12/08 05:22:24;;;;;;;12.20;9.47;;;7.60;99.90;;;;;;5025188;28;20206;-77
2022/12/08 05:24:50;;;;;;;10.70;8.87;;;7.60;99.90;;;;;;5025464;28;20692;-78
2022/12/08 05:27:15;;;;;;;14.63;9.30;;;7.60;99.90;;;;;;5029982;28;20654;-77
2022/12/08 05:29:41;;;;;;;11.17;9.97;;;7.60;99.90;;;;;;5017294;28;20225;-77
2022/12/08 05:32:07;;;;;;;12.00;9.13;;;7.60;99.90;;;;;;5017333;28;20197;-77
2022/12/08 05:34:33;;;;;;;11.53;10.20;;;7.60;99.90;;;;;;5033887;28;20222;-77
2022/12/08 05:36:58;;;;;;;13.30;10.03;;;7.50;99.90;;;;;;5032585;28;20186;-78
2022/12/08 05:39:24;;;;;;;12.93;10.60;;;7.50;99.90;;;;;;5031630;28;20244;-77
2022/12/08 05:41:50;;;;;;;12.53;11.10;;;7.60;99.90;;;;;;5033583;28;20186;-76
2022/12/08 05:44:16;;;;;;;11.37;9.83;;;7.50;99.90;;;;;;5033897;28;20668;-77
2022/12/08 05:46:41;;;;;;;12.00;10.70;;;7.60;99.90;;;;;;5032828;28;20213;-76
2022/12/08 05:49:07;;;;;;;15.93;11.67;;;7.50;99.90;;;;;;5030532;28;20194;-77
2022/12/08 05:51:33;;;;;;;18.00;11.37;;;7.50;99.90;;;;;;5030088;28;20465;-77
2022/12/08 05:53:59;;;;;;;15.40;12.57;;;7.60;99.90;;;;;;5030414;28;20158;-77
2022/12/08 05:56:24;;;;;;;16.70;13.30;;;7.50;99.90;;;;;;5025414;28;20175;-77
2022/12/08 05:58:50;;;;;;;16.17;12.43;;;7.50;99.90;;;;;;5022345;28;20198;-77
2022/12/08 06:01:27;;;;;;;14.43;11.17;;;7.50;99.90;;;;;;5022806;28;20220;-77
2022/12/08 06:04:31;;;;;;;13.73;10.70;;;7.50;99.90;;;;;;5028027;28;20604;-77
2022/12/08 06:06:56;;;;;;;15.18;11.85;;;7.50;99.90;;;;;;5028693;28;20250;-77
2022/12/08 06:09:22;;;;;;;17.30;12.80;;;7.50;99.90;;;;;;5028843;28;20186;-76
2022/12/08 06:11:48;;;;;;;13.00;11.00;;;7.50;99.90;;;;;;5034748;28;20217;-77
2022/12/08 06:14:13;;;;;;;14.80;12.00;;;7.60;99.90;;;;;;5035373;28;20169;-77
2022/12/08 06:16:39;;;;;;;14.57;10.03;;;7.50;99.90;;;;;;5034691;28;20605;-77
2022/12/08 06:19:05;;;;;;;19.07;12.53;;;7.50;99.90;;;;;;5035877;28;20273;-77
2022/12/08 06:21:31;;;;;;;15.60;11.97;;;7.60;99.90;;;;;;5035550;28;20212;-77
2022/12/08 06:23:56;;;;;;;16.10;11.90;;;7.50;99.90;;;;;;5034999;28;20165;-77
2022/12/08 06:26:22;;;;;;;14.07;11.30;;;7.50;99.90;;;;;;5027084;28;20166;-77
2022/12/08 06:28:48;;;;;;;12.67;10.57;;;7.50;99.90;;;;;;5009977;28;20257;-77
2022/12/08 06:31:17;;;;;;;18.00;11.23;;;7.50;99.90;;;;;;5022923;28;20602;-76
2022/12/08 06:33:44;;;;;;;18.65;11.70;;;7.50;99.90;;;;;;5022152;28;21337;-76
2022/12/08 06:36:11;;;;;;;12.95;10.57;;;7.50;99.90;;;;;;5020118;28;20407;-76
2022/12/08 06:38:38;;;;;;;17.35;10.13;;;7.50;99.90;;;;;;5018130;28;20170;-76
2022/12/08 06:41:04;;;;;;;15.77;11.55;;;7.50;99.90;;;;;;5023790;28;20190;-76
2022/12/08 06:43:32;;;;;;;16.30;11.23;;;7.50;99.90;;;;;;5022267;28;20242;-78
2022/12/08 06:45:58;;;;;;;18.08;13.25;;;7.50;99.90;;;;;;5031873;28;20521;-77
2022/12/08 06:48:24;;;;;;;13.93;11.38;;;7.50;99.90;;;;;;5045317;28;20168;-77
2022/12/08 06:50:49;;;;;;;10.53;9.43;;;7.50;99.90;;;;;;5049729;28;20749;-77
2022/12/08 06:53:16;;;;;;;15.33;10.60;;;7.50;99.90;;;;;;5035900;28;20805;-77
2022/12/08 06:55:47;;;;;;;16.17;12.27;;;7.50;99.90;;;;;;5021982;28;20182;-75
2022/12/08 06:58:13;;;;;;;14.55;10.93;;;7.50;99.90;;;;;;5012575;28;20205;-75
2022/12/08 07:00:41;;;;;;;12.65;10.55;;;7.50;99.90;;;;;;4992549;28;20212;-76
2022/12/08 07:03:08;;;;;;;17.52;11.40;;;7.50;99.90;;;;;;5019281;28;20181;-75
2022/12/08 07:05:35;;;;;;;14.90;10.90;;;7.60;99.90;;;;;;5031726;28;20162;-75
2022/12/08 07:08:01;;;;;;;19.98;11.30;;;7.60;99.90;;;;;;5032163;28;20253;-74
2022/12/08 07:10:27;;;;;;;15.38;11.70;;;7.60;99.90;;;;;;5030384;28;20208;-75
2022/12/08 07:12:55;;;;;;;17.60;10.20;;;7.60;99.90;;;;;;5035093;28;20166;-76
2022/12/08 07:15:21;;;;;;;15.77;11.65;;;7.60;99.90;;;;;;5031203;28;20174;-76
2022/12/08 07:17:47;;;;;;;13.37;10.40;;;7.60;99.90;;;;;;5032099;28;20188;-76
2022/12/08 07:20:13;;;;;;;15.55;9.80;;;7.60;99.90;;;;;;5031882;28;20632;-77
2022/12/08 07:22:39;;;;;;;16.35;11.90;;;7.50;99.90;;;;;;5018188;28;20181;-75
2022/12/08 07:25:05;;;;;;;14.13;10.00;;;7.60;99.90;;;;;;5023656;28;20563;-76
2022/12/08 07:27:32;;;;;;;15.75;10.85;;;7.50;99.90;;;;;;5053737;23;20275;-77
2022/12/08 07:29:57;;;;;;;13.38;10.55;;;7.60;99.90;;;;;;5047894;28;20211;-78
2022/12/08 07:32:26;;;;;;;13.40;10.60;;;7.50;99.90;;;;;;5049598;28;20176;-78
2022/12/08 07:34:52;;;;;;;13.00;10.77;;;7.50;99.90;;;;;;5051172;28;20181;-78
2022/12/08 07:37:17;;;;;;;16.40;11.73;;;7.50;99.90;;;;;;5033406;28;20193;-77
2022/12/08 07:39:43;;;;;;;13.57;10.70;;;7.50;99.90;;;;;;5049754;28;20205;-77
2022/12/08 07:42:09;;;;;;;13.57;10.93;;;7.50;99.90;;;;;;5051073;28;20188;-78
2022/12/08 07:44:36;;;;;;;13.25;10.60;;;7.50;99.90;;;;;;5048953;28;20279;-76
2022/12/08 07:47:02;;;;;;;13.70;10.53;;;7.50;99.90;;;;;;5042707;28;20289;-76
2022/12/08 07:49:28;;;;;;;12.87;10.50;;;7.50;99.90;;;;;;5029249;28;20173;-76
2022/12/08 07:51:53;;;;;;;14.30;9.27;;;7.50;99.90;;;;;;5030943;28;20223;-77
2022/12/08 07:54:19;;;;;;;15.43;10.13;;;7.50;99.90;;;;;;5030600;28;20661;-77
2022/12/08 07:56:46;;;;;;;10.05;8.02;;;7.50;99.90;;;;;;5030311;28;20241;-76
2022/12/08 07:59:13;;;;;;;13.23;9.03;;;7.50;99.90;;;;;;5029410;28;20225;-77
2022/12/08 08:01:39;;;;;;;11.27;9.35;;;7.50;99.90;;;;;;5029094;28;20169;-76
2022/12/08 08:04:05;;;;;;;15.25;9.15;;;7.40;99.90;;;;;;5030491;28;20161;-76
2022/12/08 08:06:32;;;;;;;13.40;10.90;;;7.40;99.90;;;;;;5029378;28;20715;-76
2022/12/08 08:08:58;;;;;;;13.43;9.25;;;7.40;99.90;;;;;;5013355;28;20939;-76
2022/12/08 08:11:24;;;;;;;15.38;10.43;;;7.40;99.90;;;;;;5029980;28;20181;-75
2022/12/08 08:13:50;;;;;;;14.55;11.23;;;7.40;99.90;;;;;;5030252;28;20184;-77
2022/12/08 08:16:17;;;;;;;15.03;10.10;;;7.40;99.90;;;;;;5029690;28;20276;-78
2022/12/08 08:18:46;;;;;;;16.77;10.25;;;7.40;99.90;;;;;;5030206;28;20170;-77
2022/12/08 08:21:12;;;;;;;14.15;10.52;;;7.40;99.90;;;;;;5029109;28;20177;-78
2022/12/08 08:23:38;;;;;;;12.40;9.37;;;7.30;99.90;;;;;;5028642;28;20273;-79
2022/12/08 08:26:04;;;;;;;11.20;10.00;;;7.30;99.90;;;;;;5030416;28;20182;-79
2022/12/08 08:28:30;;;;;;;9.80;8.70;;;7.30;99.90;;;;;;5030119;28;20560;-78
2022/12/08 08:30:57;;;;;;;11.90;10.20;;;7.30;99.90;;;;;;5031283;28;20260;-82
2022/12/08 08:33:24;;;;;;;12.82;9.40;;;7.30;99.90;;;;;;5030049;28;20203;-81
2022/12/08 08:35:49;;;;;;;12.20;9.45;;;7.30;99.90;;;;;;5029566;28;20169;-82
2022/12/08 08:38:15;;;;;;;10.27;9.17;;;7.40;99.90;;;;;;5030510;28;20174;-81
2022/12/08 08:40:41;;;;;;;11.17;9.37;;;7.40;99.90;;;;;;5030118;28;20239;-81
2022/12/08 08:43:07;;;;;;;11.70;8.90;;;7.40;99.90;;;;;;5030794;28;20169;-81
2022/12/08 08:45:34;;;;;;;12.80;9.27;;;7.40;99.90;;;;;;5013006;28;20180;-82
2022/12/08 08:48:00;;;;;;;10.50;8.80;;;7.40;99.90;;;;;;5012608;28;20217;-81
2022/12/08 08:50:27;;;;;;;11.30;8.90;;;7.50;99.90;;;;;;5014160;28;20177;-80
2022/12/08 08:52:52;;;;;;;12.43;7.90;;;7.50;99.90;;;;;;5029501;28;20195;-80
2022/12/08 08:55:18;;;;;;;10.60;8.13;;;7.50;99.90;;;;;;5029562;28;20980;-81
2022/12/08 08:57:44;;;;;;;9.93;7.97;;;7.50;99.90;;;;;;5030980;28;20190;-77
2022/12/08 09:00:11;;;;;;;9.48;7.88;;;7.50;99.90;;;;;;5012513;28;20687;-78
2022/12/08 09:02:37;;;;;;;11.10;7.53;;;7.60;99.90;;;;;;5027466;28;20208;-77
2022/12/08 09:05:04;;;;;;;11.15;7.55;;;7.60;99.90;;;;;;5028838;28;20174;-77
2022/12/08 09:07:30;;;;;;;12.77;8.13;;;7.60;99.90;;;;;;5028473;28;20185;-77
2022/12/08 09:09:56;;;;;;;9.07;7.32;;;7.60;99.90;;;;;;5028582;28;20221;-78
2022/12/08 09:12:22;;;;;;;10.07;8.02;;;7.60;99.90;;;;;;5029217;28;20174;-77
2022/12/08 09:14:48;;;;;;;8.40;6.90;;;7.70;99.90;;;;;;5029159;28;20243;-78
2022/12/08 09:17:14;;;;;;;7.77;6.67;;;7.70;99.90;;;;;;5029413;28;20596;-78
2022/12/08 09:19:40;;;;;;;10.32;7.72;;;7.70;99.90;;;;;;5012449;28;20208;-78
2022/12/08 09:22:06;;;;;;;8.80;6.83;;;7.70;99.90;;;;;;5029450;28;20586;-77
2022/12/08 09:24:32;;;;;;;7.43;6.40;;;7.70;99.90;;;;;;5029262;28;20564;-78
2022/12/08 09:26:57;;;;;;;7.47;6.10;;;7.60;99.90;;;;;;5029326;28;20197;-77
2022/12/08 09:29:23;;;;;;;10.23;6.53;;;7.60;99.90;;;;;;5014703;28;20602;-78
2022/12/08 09:31:49;;;;;;;9.73;7.18;;;7.70;99.90;;;;;;5041108;28;20177;-81
2022/12/08 09:34:15;;;;;;;6.90;5.70;;;7.70;99.90;;;;;;5047414;28;20176;-76
2022/12/08 09:36:41;;;;;;;11.70;7.17;;;7.80;99.90;;;;;;5036078;28;20616;-80
2022/12/08 09:39:08;;;;;;;7.03;5.90;;;7.80;99.90;;;;;;5027628;28;21031;-82
2022/12/08 09:41:57;;;;;;;8.13;7.03;;;7.80;99.90;;;;;;5028544;28;20184;-77
2022/12/08 09:44:49;;;;;;;8.77;5.20;;;7.80;99.90;;;;;;5010431;28;20189;-77
2022/12/08 09:47:46;;;;;;;5.10;4.45;;;7.90;99.90;;;;;;5028706;28;20291;-77
2022/12/08 09:50:41;;;;;;;5.82;5.22;;;7.90;99.90;;;;;;5029147;28;20282;-77
2022/12/08 09:53:34;;;;;;;6.97;5.68;;;8.00;99.90;;;;;;5027595;28;20514;-77
2022/12/08 09:56:12;;;;;;;6.65;4.40;;;8.00;99.90;;;;;;5029064;28;20253;-77
2022/12/08 09:58:53;;;;;;;7.30;5.10;;;8.00;99.90;;;;;;5029243;28;20197;-76
2022/12/08 10:01:21;;;;;;;7.38;4.30;;;8.00;99.90;;;;;;5028465;28;20175;-77
2022/12/08 10:03:48;;;;;;;6.18;3.88;;;8.10;99.90;;;;;;5039382;28;20680;-77
2022/12/08 10:06:51;;;;;;;4.75;2.70;;;8.10;99.90;;;;;;5047850;28;20185;-76
2022/12/08 10:09:48;;;;;;;2.95;2.38;;;8.10;99.90;;;;;;5044963;28;20195;-77
2022/12/08 10:12:48;;;;;;;2.78;2.33;;;8.10;99.90;;;;;;5027199;28;20212;-78
2022/12/08 10:15:38;;;;;;;4.25;2.70;;;8.10;99.90;;;;;;5011190;28;20177;-78
2022/12/08 10:18:12;;;;;;;3.33;2.15;;;8.10;99.90;;;;;;5027310;28;20193;-78
2022/12/08 10:20:44;;;;;;;3.78;2.58;;;8.10;99.90;;;;;;5027595;28;20205;-78
2022/12/08 10:23:18;;;;;;;6.00;3.15;;;8.10;99.90;;;;;;5027729;28;20696;-78
2022/12/08 10:25:56;;;;;;;4.50;3.10;;;8.00;99.90;;;;;;5011144;28;20641;-78
2022/12/08 10:28:22;;;;;;;5.82;3.78;;;8.10;99.90;;;;;;5027065;28;20264;-78
2022/12/08 10:30:48;;;;;;;4.90;3.83;;;8.10;99.90;;;;;;5032494;28;20311;-78
2022/12/08 10:33:17;;;;;;;8.20;5.37;;;8.10;99.90;;;;;;5036300;28;20174;-77
2022/12/08 10:35:49;;;;;;;5.18;4.40;;;8.20;99.90;;;;;;5034987;28;20679;-77
2022/12/08 10:38:21;;;;;;;6.00;5.03;;;8.20;99.90;;;;;;5034812;28;20306;-78
2022/12/08 10:40:50;;;;;;;9.43;6.70;;;8.20;99.90;;;;;;5023627;28;20296;-78
2022/12/08 10:43:26;;;;;;;7.55;6.05;;;8.20;99.90;;;;;;5045489;28;20177;-78
2022/12/08 10:45:53;;;;;;;11.30;6.32;;;8.20;99.90;;;;;;5047071;28;20207;-78
2022/12/08 10:48:26;;;;;;;8.13;6.15;;;8.20;99.90;;;;;;5037111;28;20170;-78
2022/12/08 10:50:55;;;;;;;9.30;6.85;;;8.20;99.90;;;;;;5032518;28;20205;-78
2022/12/08 10:53:32;;;;;;;7.90;7.05;;;8.20;99.90;;;;;;5047758;28;20177;-79
2022/12/08 10:56:01;;;;;;;7.00;5.50;;;8.20;99.90;;;;;;5048317;28;20172;-80
2022/12/08 10:58:39;;;;;;;7.35;5.82;;;8.20;99.90;;;;;;5013594;28;85748;-78
2022/12/08 11:01:14;;;;;;;8.27;6.22;;;8.20;99.90;;;;;;4992794;28;20183;-77
2022/12/08 11:03:53;;;;;;;7.45;6.28;;;8.20;99.90;;;;;;4996130;28;20190;-78
2022/12/08 11:07:48;;;;;;;8.55;6.15;;;8.20;99.90;;;;;;4962491;28;20817;-77
2022/12/08 11:10:17;;;;;;;10.60;5.55;;;8.20;99.90;;;;;;4980577;28;20229;-78
2022/12/08 11:12:43;;;;;;;6.53;5.88;;;8.20;99.90;;;;;;5007408;28;20340;-75
2022/12/08 11:15:17;;;;;;;9.17;6.50;;;8.10;99.90;;;;;;4970918;28;20252;-74
2022/12/08 11:18:19;;;;;;;6.45;4.53;;;8.10;99.90;;;;;;5031160;28;20654;-75
2022/12/08 11:20:44;;;;;;;8.70;3.80;;;8.10;99.90;;;;;;5006342;28;20170;-76
2022/12/08 11:23:23;;;;;;;2.57;2.30;;;8.10;99.90;;;;;;4989758;28;20277;-75
2022/12/08 11:25:51;;;;;;;5.28;3.70;;;8.00;99.90;;;;;;5005701;28;20336;-74
2022/12/08 11:28:22;;;;;;;4.75;3.63;;;8.00;99.90;;;;;;5006028;28;20179;-76
2022/12/08 11:30:56;;;;;;;6.97;3.97;;;8.00;99.90;;;;;;5005938;28;20228;-76
2022/12/08 11:33:27;;;;;;;5.50;3.63;;;8.00;99.90;;;;;;5007466;28;20170;-76
2022/12/08 11:36:02;;;;;;;6.57;3.33;;;8.00;99.90;;;;;;5006940;28;20181;-77
2022/12/08 11:38:30;;;;;;;7.50;3.00;;;8.00;99.90;;;;;;5008724;28;20173;-78
2022/12/08 11:40:58;;;;;;;3.55;2.70;;;8.10;99.90;;;;;;5006184;28;20175;-79
2022/12/08 11:43:33;;;;;;;2.75;1.85;;;8.10;99.90;;;;;;4989258;28;20198;-79
2022/12/08 11:46:03;;;;;;;6.70;3.35;;;8.10;99.90;;;;;;4990868;28;20274;-79
2022/12/08 11:48:43;;;;;;;3.83;2.92;;;8.10;99.90;;;;;;4985356;28;20696;-79
2022/12/08 11:51:31;;;;;;;4.20;2.83;;;8.10;99.90;;;;;;4989176;28;20190;-79
2022/12/08 11:54:18;;;;;;;4.32;2.67;;;8.10;99.90;;;;;;4991144;28;20183;-79
2022/12/08 11:56:48;;;;;;;3.22;2.10;;;8.10;99.90;;;;;;5000515;28;20626;-78
2022/12/08 11:59:29;;;;;;;3.38;2.05;;;8.10;99.90;;;;;;4989288;28;20264;-79
2022/12/08 12:01:58;;;;;;;7.90;2.88;;;8.20;99.90;;;;;;4946178;28;20515;-79
2022/12/08 12:04:32;;;;;;;6.35;3.40;;;8.20;99.90;;;;;;4986075;28;20256;-78
2022/12/08 12:07:46;;;;;;;16.25;8.40;;;8.20;99.90;;;;;;4985629;28;20261;-78
2022/12/08 12:10:32;;;;;;;7.20;5.28;;;8.20;99.90;;;;;;5026484;28;20635;-78
2022/12/08 12:13:08;;;;;;;13.10;8.10;;;8.30;99.90;;;;;;4957230;28;20192;-78
2022/12/08 12:16:12;;;;;;;14.30;8.95;;;8.30;99.90;;;;;;4999047;28;20175;-79
2022/12/08 12:18:56;;;;;;;11.20;7.32;;;8.30;99.90;;;;;;4953624;28;20270;-78
2022/12/08 12:21:24;;;;;;;15.77;8.30;;;8.40;99.90;;;;;;4987030;28;20179;-78
2022/12/08 12:23:55;;;;;;;13.90;5.85;;;8.40;99.90;;;;;;4969574;28;20264;-78
2022/12/08 12:26:28;;;;;;;11.85;5.10;;;8.40;99.90;;;;;;4987841;28;20690;-78
2022/12/08 12:29:00;;;;;;;12.10;6.95;;;8.50;99.90;;;;;;4973238;28;20180;-78
2022/12/08 12:31:32;;;;;;;9.65;5.35;;;8.50;99.90;;;;;;4971146;28;20243;-77
2022/12/08 12:34:15;;;;;;;6.63;5.10;;;8.50;99.90;;;;;;4972833;28;20175;-78
2022/12/08 12:36:53;;;;;;;9.25;6.25;;;8.60;99.90;;;;;;4971703;28;20261;-78
2022/12/08 12:39:24;;;;;;;7.45;5.63;;;8.60;99.90;;;;;;4971752;28;20563;-78
2022/12/08 12:42:49;;;;;;;9.10;5.32;;;8.60;99.90;;;;;;4959129;28;20184;-79
2022/12/08 12:45:45;;;;;;;9.38;6.50;;;8.60;99.90;;;;;;4974391;28;20215;-78
2022/12/08 12:48:23;;;;;;;9.53;6.97;;;8.60;99.90;;;;;;4971095;28;20182;-78
2022/12/08 12:50:51;;;;;;;10.77;6.60;;;8.70;99.90;;;;;;4971331;28;20607;-78
2022/12/08 12:53:19;;;;;;;12.02;8.38;;;8.70;99.90;;;;;;4952102;28;20192;-78
2022/12/08 12:55:45;;;;;;;12.13;8.18;;;8.80;99.90;;;;;;4969018;28;20876;-78
2022/12/08 12:58:28;;;;;;;12.43;8.83;;;8.80;99.90;;;;;;4972231;28;20156;-78
2022/12/08 13:01:10;;;;;;;12.15;8.30;;;8.80;99.90;;;;;;4971094;28;20175;-79
2022/12/08 13:04:04;;;;;;;12.00;6.40;;;8.90;99.90;;;;;;4977514;28;20180;-79
2022/12/08 13:06:46;;;;;;;10.98;6.30;;;8.90;99.90;;;;;;4964770;28;20585;-78
2022/12/08 13:09:40;;;;;;;11.95;8.00;;;8.90;99.90;;;;;;4971835;28;20182;-78
2022/12/08 13:12:16;;;;;;;8.85;6.65;;;9.00;99.90;;;;;;4955994;28;20532;-78